createdAt,value
2019-04-21T00:02:03.266Z,20.80
2019-04-21T00:04:48.445Z,17.73
2019-04-21T00:07:26.074Z,23.10
2019-04-21T00:10:02.613Z,16.67
2019-04-21T00:12:31.466Z,19.10
2019-04-21T00:14:54.848Z,17.13
2019-04-21T00:17:18.191Z,16.43
2019-04-21T00:20:05.499Z,17.93
2019-04-21T00:22:38.267Z,19.57
2019-04-21T00:25:14.047Z,20.17
2019-04-21T00:27:48.767Z,16.60
2019-04-21T00:30:25.361Z,17.73
2019-04-21T00:32:46.497Z,16.73
2019-04-21T00:35:11.709Z,20.10
2019-04-21T00:38:00.548Z,19.47
2019-04-21T00:40:35.532Z,15.60
2019-04-21T00:43:01.282Z,15.20
2019-04-21T00:45:27.507Z,14.90
2019-04-21T00:48:14.439Z,15.83
2019-04-21T00:50:51.476Z,18.23
2019-04-21T00:53:29.791Z,17.33
2019-04-21T00:55:59.434Z,17.40
2019-04-21T01:01:02.199Z,17.60
2019-04-21T01:03:33.499Z,16.80
2019-04-21T01:06:06.131Z,15.57
2019-04-21T01:08:39.997Z,16.47
2019-04-21T01:11:10.079Z,16.30
2019-04-21T01:13:41.516Z,21.60
2019-04-21T01:16:17.440Z,19.87
2019-04-21T01:18:46.299Z,19.07
2019-04-21T01:20:55.385Z,16.70
2019-04-21T01:23:25.937Z,17.03
2019-04-21T01:26:13.859Z,18.17
2019-04-21T01:28:48.238Z,17.67
2019-04-21T01:31:17.085Z,18.67
2019-04-21T01:33:50.856Z,17.20
2019-04-21T01:36:24.182Z,19.37
2019-04-21T01:39:02.138Z,17.23
2019-04-21T01:41:31.394Z,16.77
2019-04-21T01:43:57.836Z,13.97
2019-04-21T01:46:30.902Z,14.77
2019-04-21T01:48:57.038Z,19.10
2019-04-21T01:51:36.787Z,17.77
2019-04-21T01:54:14.841Z,18.13
2019-04-21T01:57:04.341Z,15.50
2019-04-21T01:59:33.682Z,16.50
2019-04-21T02:02:10.626Z,17.13
2019-04-21T02:04:54.302Z,15.43
2019-04-21T02:07:14.782Z,16.37
2019-04-21T02:09:44.328Z,14.80
2019-04-21T02:12:18.837Z,14.77
2019-04-21T02:14:59.216Z,14.87
2019-04-21T02:17:26.476Z,17.13
2019-04-21T02:19:51.726Z,16.90
2019-04-21T02:22:35.375Z,16.63
2019-04-21T02:25:01.010Z,16.57
2019-04-21T02:27:33.068Z,16.83
2019-04-21T02:30:10.227Z,16.20
2019-04-21T02:32:43.549Z,15.40
2019-04-21T02:35:25.191Z,13.87
2019-04-21T02:37:55.477Z,15.87
2019-04-21T02:42:59.872Z,15.33
2019-04-21T02:45:23.515Z,16.07
2019-04-21T02:48:06.318Z,14.87
2019-04-21T02:50:28.187Z,14.67
2019-04-21T02:58:06.313Z,15.93
2019-04-21T03:00:42.776Z,16.37
2019-04-21T03:06:06.170Z,15.57
2019-04-21T03:08:50.619Z,16.70
2019-04-21T03:13:47.335Z,17.03
2019-04-21T03:16:23.469Z,15.03
2019-04-21T03:18:57.116Z,15.87
2019-04-21T03:21:20.425Z,17.07
2019-04-21T03:24:15.270Z,14.77
2019-04-21T03:26:44.958Z,17.07
2019-04-21T03:31:59.625Z,14.33
2019-04-21T03:39:01.300Z,16.80
2019-04-21T03:42:00.237Z,15.80
2019-04-21T03:46:57.861Z,16.70
2019-04-21T03:49:19.271Z,15.77
2019-04-21T03:51:52.001Z,15.47
2019-04-21T03:54:21.940Z,16.83
2019-04-21T03:59:38.032Z,14.93
2019-04-21T04:02:28.653Z,19.13
2019-04-21T04:05:15.102Z,16.70
2019-04-21T04:08:14.806Z,15.00
2019-04-21T04:10:31.453Z,17.47
2019-04-21T04:13:05.885Z,15.83
2019-04-21T04:15:45.360Z,14.87
2019-04-21T04:18:17.270Z,19.00
2019-04-21T04:23:08.040Z,17.90
2019-04-21T04:25:49.666Z,16.13
2019-04-21T04:28:18.972Z,16.30
2019-04-21T04:33:29.506Z,17.70
2019-04-21T04:36:01.518Z,15.77
2019-04-21T04:38:34.082Z,16.73
2019-04-21T04:41:20.977Z,15.83
2019-04-21T04:43:42.359Z,16.30
2019-04-21T04:46:13.588Z,15.90
2019-04-21T04:48:47.571Z,18.17
2019-04-21T04:51:13.152Z,14.93
2019-04-21T04:53:47.069Z,18.70
2019-04-21T04:56:18.329Z,17.80
2019-04-21T04:59:23.252Z,18.97
2019-04-21T05:01:48.543Z,16.90
2019-04-21T05:09:13.297Z,18.43
2019-04-21T05:14:10.003Z,19.13
2019-04-21T05:24:01.376Z,18.23
2019-04-21T05:26:34.541Z,19.67
2019-04-21T05:28:58.801Z,22.57
2019-04-21T05:31:57.024Z,25.90
2019-04-21T05:34:48.687Z,18.97
2019-04-21T05:37:18.767Z,18.03
2019-04-21T05:39:51.259Z,19.17
2019-04-21T05:42:15.283Z,20.10
2019-04-21T05:45:08.068Z,21.83
2019-04-21T05:47:41.412Z,20.10
2019-04-21T05:50:12.381Z,19.63
2019-04-21T05:52:53.484Z,20.73
2019-04-21T05:58:02.680Z,18.83
2019-04-21T06:00:54.482Z,21.17
2019-04-21T06:03:10.159Z,20.57
2019-04-21T06:05:44.178Z,19.93
2019-04-21T06:08:13.259Z,20.17
2019-04-21T06:10:47.472Z,21.53
2019-04-21T06:13:22.115Z,19.40
2019-04-21T06:16:03.158Z,20.93
2019-04-21T06:18:27.195Z,22.10
2019-04-21T06:20:54.692Z,22.13
2019-04-21T06:23:27.029Z,19.70
2019-04-21T06:26:08.158Z,19.33
2019-04-21T06:28:37.921Z,22.37
2019-04-21T06:33:36.291Z,21.30
2019-04-21T06:36:31.779Z,20.40
2019-04-21T06:38:59.701Z,19.60
2019-04-21T06:41:26.501Z,18.53
2019-04-21T06:44:01.525Z,21.30
2019-04-21T06:46:33.524Z,19.53
2019-04-21T06:56:38.010Z,22.67
2019-04-21T06:59:06.435Z,20.63
2019-04-21T07:01:42.243Z,21.77
2019-04-21T07:04:17.500Z,22.47
2019-04-21T07:06:52.007Z,19.37
2019-04-21T07:11:44.000Z,24.20
2019-04-21T07:17:08.111Z,20.60
2019-04-21T07:19:31.490Z,19.53
2019-04-21T07:21:54.350Z,22.13
2019-04-21T07:27:00.286Z,25.83
2019-04-21T07:29:35.832Z,20.30
2019-04-21T07:32:05.028Z,23.37
2019-04-21T07:34:33.436Z,20.03
2019-04-21T07:37:17.381Z,23.17
2019-04-21T07:39:35.319Z,24.07
2019-04-21T07:42:06.513Z,26.10
2019-04-21T07:44:37.920Z,24.30
2019-04-21T07:47:11.822Z,24.00
2019-04-21T07:52:55.280Z,23.27
2019-04-21T07:55:22.126Z,24.67
2019-04-21T07:57:36.709Z,22.47
2019-04-21T08:00:21.392Z,23.50
2019-04-21T08:02:40.372Z,22.03
2019-04-21T08:07:54.289Z,25.90
2019-04-21T08:10:18.540Z,24.57
2019-04-21T08:12:47.349Z,25.77
2019-04-21T08:17:58.185Z,23.23
2019-04-21T08:20:24.620Z,27.43
2019-04-21T08:22:59.277Z,25.20
2019-04-21T08:25:41.982Z,28.80
2019-04-21T08:28:24.169Z,28.60
2019-04-21T08:30:36.239Z,27.87
2019-04-21T08:33:22.023Z,26.20
2019-04-21T08:38:13.844Z,26.30
2019-04-21T08:40:54.225Z,29.02
2019-04-21T08:43:20.770Z,26.10
2019-04-21T08:45:48.231Z,27.48
2019-04-21T08:48:17.078Z,27.80
2019-04-21T08:50:53.874Z,29.40
2019-04-21T08:53:27.400Z,27.57
2019-04-21T08:56:16.476Z,27.65
2019-04-21T08:58:56.179Z,28.50
2019-04-21T09:04:23.392Z,27.15
2019-04-21T09:09:31.951Z,32.70
2019-04-21T09:11:59.173Z,29.35
2019-04-21T09:14:38.978Z,27.98
2019-04-21T09:17:05.184Z,27.15
2019-04-21T09:19:53.397Z,31.87
2019-04-21T09:22:05.882Z,30.00
2019-04-21T09:24:41.291Z,30.37
2019-04-21T09:27:08.390Z,30.92
2019-04-21T09:29:36.044Z,30.12
2019-04-21T09:32:00.019Z,31.50
2019-04-21T09:34:37.004Z,29.65
2019-04-21T09:37:15.400Z,29.52
2019-04-21T09:39:40.977Z,28.55
2019-04-21T09:42:08.862Z,32.25
2019-04-21T09:44:42.542Z,31.60
2019-04-21T09:47:12.627Z,30.50
2019-04-21T09:49:43.368Z,33.05
2019-04-21T09:52:20.016Z,31.73
2019-04-21T09:54:57.485Z,30.25
2019-04-21T09:57:27.599Z,28.50
2019-04-21T10:00:02.447Z,30.02
2019-04-21T10:02:34.339Z,31.80
2019-04-21T10:04:55.230Z,27.75
2019-04-21T10:07:31.882Z,30.45
2019-04-21T10:09:58.203Z,27.85
2019-04-21T10:12:28.985Z,33.55
2019-04-21T10:14:59.755Z,26.85
2019-04-21T10:17:39.569Z,28.90
2019-04-21T10:20:11.818Z,29.60
2019-04-21T10:22:42.180Z,25.95
2019-04-21T10:25:12.825Z,27.27
2019-04-21T10:27:45.445Z,24.72
2019-04-21T10:30:16.431Z,24.32
2019-04-21T10:32:48.186Z,28.12
2019-04-21T10:35:21.191Z,25.15
2019-04-21T10:38:04.401Z,26.23
2019-04-21T10:40:23.518Z,23.05
2019-04-21T10:42:54.227Z,25.12
2019-04-21T10:45:25.208Z,27.48
2019-04-21T10:47:56.776Z,24.90
2019-04-21T10:50:28.656Z,24.70
2019-04-21T10:53:09.222Z,27.32
2019-04-21T10:55:54.303Z,26.97
2019-04-21T10:58:14.163Z,26.73
2019-04-21T11:00:46.161Z,26.15
2019-04-21T11:03:44.836Z,23.87
2019-04-21T11:06:18.883Z,21.15
2019-04-21T11:08:54.111Z,26.48
2019-04-21T11:11:21.874Z,24.70
2019-04-21T11:13:52.624Z,26.23
2019-04-21T11:16:23.579Z,24.43
2019-04-21T11:18:53.894Z,25.70
2019-04-21T11:21:24.914Z,23.75
2019-04-21T11:23:56.504Z,27.58
2019-04-21T11:26:27.593Z,22.05
2019-04-21T11:28:59.011Z,24.75
2019-04-21T11:31:29.422Z,24.70
2019-04-21T11:34:00.861Z,26.27
2019-04-21T11:36:33.151Z,27.17
2019-04-21T11:39:35.277Z,26.00
2019-04-21T11:41:54.710Z,25.43
2019-04-21T11:44:25.011Z,24.18
2019-04-21T11:46:56.356Z,22.80
2019-04-21T11:49:30.238Z,22.27
2019-04-21T11:51:58.829Z,24.90
2019-04-21T11:54:29.145Z,22.45
2019-04-21T11:57:02.217Z,27.25
2019-04-21T11:59:33.380Z,25.10
2019-04-21T12:02:05.584Z,24.72
2019-04-21T12:04:35.883Z,22.98
2019-04-21T12:07:07.224Z,34.40
2019-04-21T12:09:37.762Z,27.35
2019-04-21T12:12:09.593Z,23.90
2019-04-21T12:14:39.889Z,21.73
2019-04-21T12:17:10.471Z,23.62
2019-04-21T12:19:40.964Z,21.33
2019-04-21T12:22:20.176Z,23.87
2019-04-21T12:24:44.988Z,24.43
2019-04-21T12:27:16.156Z,22.45
2019-04-21T12:29:48.009Z,24.07
2019-04-21T12:32:40.961Z,21.68
2019-04-21T12:35:13.647Z,23.20
2019-04-21T12:37:44.786Z,21.42
2019-04-21T12:40:16.714Z,23.92
2019-04-21T12:42:48.312Z,24.23
2019-04-21T12:45:22.047Z,22.22
2019-04-21T12:47:53.789Z,20.08
2019-04-21T12:50:25.844Z,20.62
2019-04-21T12:52:56.240Z,19.27
2019-04-21T12:55:31.887Z,20.12
2019-04-21T12:57:59.429Z,18.15
2019-04-21T13:00:31.148Z,19.12
2019-04-21T13:03:01.761Z,14.23
2019-04-21T13:05:33.676Z,18.17
2019-04-21T13:08:04.966Z,17.35
2019-04-21T13:10:36.033Z,15.90
2019-04-21T13:13:06.302Z,14.98
2019-04-21T13:15:37.594Z,16.50
2019-04-21T13:18:08.334Z,13.32
2019-04-21T13:20:38.568Z,11.65
2019-04-21T13:23:10.163Z,10.98
2019-04-21T13:25:41.641Z,14.00
2019-04-21T13:28:12.601Z,13.05
2019-04-21T13:30:44.305Z,11.78
2019-04-21T13:33:15.442Z,17.85
2019-04-21T13:35:46.842Z,14.30
2019-04-21T13:38:26.942Z,14.20
2019-04-21T13:41:22.778Z,14.83
2019-04-21T13:43:39.448Z,15.72
2019-04-21T13:46:10.044Z,15.15
2019-04-21T13:48:40.625Z,13.90
2019-04-21T13:51:13.324Z,11.80
2019-04-21T13:53:43.928Z,13.05
2019-04-21T13:56:16.288Z,13.22
2019-04-21T13:58:46.704Z,14.25
2019-04-21T14:01:18.082Z,15.58
2019-04-21T14:03:49.390Z,13.20
2019-04-21T14:06:20.372Z,14.47
2019-04-21T14:08:51.174Z,14.50
2019-04-21T14:11:22.969Z,12.15
2019-04-21T14:13:54.404Z,14.20
2019-04-21T14:16:24.765Z,12.98
2019-04-21T14:18:57.124Z,12.88
2019-04-21T14:21:27.490Z,13.22
2019-04-21T14:23:59.464Z,14.10
2019-04-21T14:26:32.150Z,15.25
2019-04-21T14:29:03.605Z,17.50
2019-04-21T14:31:34.622Z,13.83
2019-04-21T14:34:05.979Z,14.47
2019-04-21T14:36:37.046Z,16.35
2019-04-21T14:39:12.397Z,17.12
2019-04-21T14:41:44.286Z,14.55
2019-04-21T14:44:49.516Z,16.12
2019-04-21T14:51:20.832Z,17.32
2019-04-21T14:54:10.130Z,15.10
2019-04-21T14:56:40.361Z,14.38
2019-04-21T14:59:11.296Z,17.70
2019-04-21T15:01:41.922Z,15.65
2019-04-21T15:04:14.347Z,15.83
2019-04-21T15:06:45.611Z,14.35
2019-04-21T15:09:15.765Z,13.98
2019-04-21T15:11:45.961Z,14.03
2019-04-21T15:14:16.173Z,13.15
2019-04-21T15:16:47.110Z,13.90
2019-04-21T15:19:17.865Z,12.13
2019-04-21T15:21:48.393Z,13.78
2019-04-21T15:25:09.995Z,14.38
2019-04-21T15:27:45.138Z,13.80
2019-04-21T15:30:18.613Z,12.30
2019-04-21T15:32:50.649Z,13.98
2019-04-21T15:35:21.357Z,14.05
2019-04-21T15:37:52.006Z,14.03
2019-04-21T15:40:33.737Z,13.98
2019-04-21T15:42:54.699Z,15.68
2019-04-21T15:45:26.343Z,13.90
2019-04-21T15:47:58.093Z,14.00
2019-04-21T15:50:28.445Z,15.58
2019-04-21T15:53:01.663Z,15.28
2019-04-21T15:55:41.279Z,16.23
2019-04-21T15:59:04.329Z,15.65
2019-04-21T16:01:52.522Z,14.70
2019-04-21T16:04:23.186Z,12.10
2019-04-21T16:06:53.565Z,14.63
2019-04-21T16:09:26.898Z,16.27
2019-04-21T16:11:55.905Z,14.53
2019-04-21T16:14:27.026Z,17.27
2019-04-21T16:16:57.438Z,14.43
2019-04-21T16:19:29.290Z,15.55
2019-04-21T16:22:01.123Z,18.45
2019-04-21T16:24:31.725Z,17.00
2019-04-21T16:27:05.347Z,14.47
2019-04-21T16:29:34.254Z,14.00
2019-04-21T16:32:05.337Z,17.20
2019-04-21T16:34:44.667Z,12.98
2019-04-21T16:37:09.701Z,15.70
2019-04-21T16:39:41.184Z,12.35
2019-04-21T16:42:12.082Z,13.00
2019-04-21T16:44:42.966Z,14.10
2019-04-21T16:47:13.826Z,12.50
2019-04-21T16:49:45.427Z,11.55
2019-04-21T16:52:20.284Z,13.32
2019-04-21T16:54:56.103Z,12.40
2019-04-21T16:58:04.596Z,13.58
2019-04-21T17:00:36.694Z,12.28
2019-04-21T17:03:00.690Z,11.22
2019-04-21T17:05:32.237Z,11.97
2019-04-21T17:08:03.970Z,11.18
2019-04-21T17:10:34.960Z,11.53
2019-04-21T17:13:06.245Z,14.03
2019-04-21T17:15:56.658Z,11.43
2019-04-21T17:18:25.180Z,13.05
2019-04-21T17:20:47.420Z,15.32
2019-04-21T17:23:13.467Z,13.80
2019-04-21T17:25:43.827Z,11.97
2019-04-21T17:28:15.388Z,13.35
2019-04-21T17:30:46.312Z,12.20
2019-04-21T17:33:21.672Z,11.88
2019-04-21T17:35:49.140Z,19.73
2019-04-21T17:38:19.481Z,22.07
2019-04-21T17:40:49.886Z,23.55
2019-04-21T17:43:21.640Z,21.70
2019-04-21T17:45:53.239Z,22.80
2019-04-21T17:48:25.146Z,24.00
2019-04-21T17:51:01.181Z,26.37
2019-04-21T17:53:43.817Z,23.07
2019-04-21T17:56:39.040Z,23.85
2019-04-21T17:59:04.158Z,24.77
2019-04-21T18:01:37.559Z,25.10
2019-04-21T18:04:11.072Z,29.85
2019-04-21T18:06:57.846Z,35.95
2019-04-21T18:09:37.010Z,36.80
2019-04-21T18:12:07.613Z,29.25
2019-04-21T18:14:22.053Z,49.55
2019-04-21T18:16:53.339Z,43.17
2019-04-21T18:19:28.834Z,51.90
2019-04-21T18:22:14.730Z,53.33
2019-04-21T18:24:55.814Z,54.98
2019-04-21T18:27:19.704Z,49.03
2019-04-21T18:29:54.663Z,41.65
2019-04-21T18:32:30.804Z,30.55
2019-04-21T18:35:35.985Z,33.40
2019-04-21T18:38:16.913Z,30.70
2019-04-21T18:40:45.945Z,29.95
2019-04-21T18:43:53.076Z,30.57
2019-04-21T18:46:34.122Z,32.23
2019-04-21T18:48:57.014Z,32.03
2019-04-21T18:51:56.575Z,32.03
2019-04-21T18:54:41.483Z,34.25
2019-04-21T18:57:08.255Z,28.52
2019-04-21T18:59:34.577Z,33.02
2019-04-21T19:02:06.492Z,33.05
2019-04-21T19:04:35.145Z,31.73
2019-04-21T19:07:19.853Z,37.35
2019-04-21T19:12:47.622Z,37.00
2019-04-21T19:14:58.007Z,38.78
2019-04-21T19:22:40.152Z,41.50
2019-04-21T19:25:09.611Z,38.13
2019-04-21T19:27:41.858Z,41.97
2019-04-21T19:30:22.398Z,40.13
2019-04-21T19:32:45.194Z,37.57
2019-04-21T19:35:02.350Z,37.73
2019-04-21T19:37:42.281Z,38.63
2019-04-21T19:40:26.615Z,35.50
2019-04-21T19:42:51.167Z,40.23
2019-04-21T19:45:22.413Z,36.80
2019-04-21T19:48:03.825Z,36.67
2019-04-21T19:50:35.160Z,41.90
2019-04-21T19:52:55.671Z,48.67
2019-04-21T19:55:20.098Z,49.27
2019-04-21T19:57:50.361Z,60.10
2019-04-21T20:00:22.254Z,54.30
2019-04-21T20:02:54.502Z,49.77
2019-04-21T20:05:35.278Z,55.73
2019-04-21T20:08:11.633Z,59.07
2019-04-21T20:10:48.342Z,51.47
2019-04-21T20:13:25.933Z,46.43
2019-04-21T20:15:52.283Z,40.20
2019-04-21T20:18:18.803Z,37.13
2019-04-21T20:20:37.513Z,37.83
2019-04-21T20:23:13.213Z,34.40
2019-04-21T20:25:47.457Z,39.40
2019-04-21T20:28:27.136Z,39.73
2019-04-21T20:31:03.883Z,34.50
2019-04-21T20:33:48.494Z,34.90
2019-04-21T20:36:09.695Z,29.43
2019-04-21T20:38:32.728Z,30.73
2019-04-21T20:40:59.986Z,31.33
2019-04-21T20:43:44.558Z,34.20
2019-04-21T20:46:12.021Z,30.20
2019-04-21T20:48:42.799Z,26.57
2019-04-21T20:51:18.542Z,28.87
2019-04-21T20:53:45.002Z,26.33
2019-04-21T20:56:13.024Z,27.03
2019-04-21T20:58:50.269Z,27.13
2019-04-21T21:01:39.357Z,28.03
2019-04-21T21:03:54.092Z,26.70
2019-04-21T21:06:26.086Z,26.37
2019-04-21T21:09:02.998Z,26.30
2019-04-21T21:11:35.279Z,22.30
2019-04-21T21:14:09.986Z,22.80
2019-04-21T21:16:41.893Z,24.07
2019-04-21T21:21:40.007Z,23.37
2019-04-21T21:24:08.679Z,23.47
2019-04-21T21:26:49.603Z,20.47
2019-04-21T21:29:11.623Z,24.23
2019-04-21T21:32:03.718Z,22.27
2019-04-21T21:34:30.953Z,21.93
2019-04-21T21:36:53.792Z,21.13
2019-04-21T21:39:31.858Z,20.60
2019-04-21T21:41:48.551Z,21.17
2019-04-21T21:44:20.054Z,21.73
2019-04-21T21:46:59.176Z,19.97
2019-04-21T21:49:33.547Z,21.83
2019-04-21T21:52:04.452Z,18.57
2019-04-21T21:54:25.848Z,19.93
2019-04-21T21:56:56.401Z,21.60
2019-04-21T21:59:31.086Z,19.37
2019-04-21T22:02:00.241Z,17.50
2019-04-21T22:04:33.827Z,17.60
2019-04-21T22:07:09.232Z,16.00
2019-04-21T22:09:34.733Z,17.53
2019-04-21T22:12:07.174Z,19.50
2019-04-21T22:14:43.542Z,15.20
2019-04-21T22:17:26.631Z,15.67
2019-04-21T22:20:03.748Z,16.83
2019-04-21T22:22:29.578Z,15.90
2019-04-21T22:24:55.550Z,17.40
2019-04-21T22:27:17.083Z,13.97
2019-04-21T22:29:51.595Z,14.80
2019-04-21T22:32:24.812Z,17.50
2019-04-21T22:34:56.508Z,14.60
2019-04-21T22:37:39.162Z,15.83
2019-04-21T22:40:11.635Z,16.00
2019-04-21T22:42:33.190Z,15.67
2019-04-21T22:44:58.966Z,14.37
2019-04-21T22:47:33.756Z,16.13
2019-04-21T22:50:00.128Z,19.37
2019-04-21T22:52:32.006Z,16.37
2019-04-21T22:55:08.531Z,18.07
2019-04-21T22:57:40.798Z,15.87
2019-04-21T23:00:11.847Z,14.90
2019-04-21T23:02:42.750Z,16.77
2019-04-21T23:05:16.851Z,15.97
2019-04-21T23:07:51.633Z,16.13
2019-04-21T23:10:19.595Z,13.93
2019-04-21T23:12:52.202Z,13.47
2019-04-21T23:15:33.222Z,15.40
2019-04-21T23:18:15.871Z,16.23
2019-04-21T23:20:52.152Z,17.87
2019-04-21T23:23:17.656Z,16.17
2019-04-21T23:25:47.198Z,14.13
2019-04-21T23:28:15.802Z,16.33
2019-04-21T23:30:56.712Z,17.53
2019-04-21T23:33:11.896Z,16.07
2019-04-21T23:35:41.797Z,18.43
2019-04-21T23:38:10.996Z,17.10
2019-04-21T23:40:48.763Z,17.67
2019-04-21T23:43:20.522Z,16.10
2019-04-21T23:45:48.173Z,20.23
2019-04-21T23:48:29.810Z,16.47
2019-04-21T23:50:58.063Z,18.53
2019-04-21T23:53:21.759Z,15.70
2019-04-21T23:55:53.032Z,18.33
2019-04-21T23:58:26.439Z,19.70
